메인 페이지
METAR-TAF:

METAR-TAF

공항 :

아폰수 페나 국제공항

쿠리치바, 파라나, 브라질

위도: 25-31S, 경도: 049-10W, 고도: 908m

현재 날씨관측

예보는 1 시간 21분 전, 00:00시(UTC)에 발표되었습니다.
10kt
온도 23°C
습도 73%
기압 1013 hPa
시정 10km 이상
고도 2500ft 상공 구름 보통

METAR: SBCT 030000Z 27010KT 9999 SCT025 23/18 Q1013

시각: 22:21 (01:21 UTC)

예보

예보는 4 시간 21분 전, 21:00시(UTC)에 발표되었습니다.
예보 대상 시간: 03일 00시부터 03일 24시까지 (UTC)
7kt
시정 10km 이상
고도 700ft 상공 구름 보통
전환 중
03일 01시부터 03일 03시까지 (UTC)
5kt
고도 700ft 상공 구름 많음
전환 중
03일 09시부터 03일 11시까지 (UTC)
서남서9kt
고도 1200ft 상공 구름 보통
전환 중
03일 12시부터 03일 14시까지 (UTC)
고도 2500ft 상공 구름 많음
전환 중
03일 15시부터 03일 17시까지 (UTC)
7kt
고도 3200ft 상공 구름 많음
전환 중
03일 19시부터 03일 21시까지 (UTC)
6kt
고도 2000ft 상공 구름 보통
전환 중
03일 22시부터 03일 24시까지 (UTC)
4kt
고도 700ft 상공 구름 보통

TAF: SBCT 022100Z 0300/0324 08007KT 9999 SCT007 TN15/0309Z TX24/0318Z BECMG 0301/0303 08005KT BKN007 BECMG 0309/0311 24009KT SCT012 BECMG 0312/0314 BKN025 BECMG 0315/0317 19007KT BKN032 BECMG 0319/0321 10006KT SCT020 BECMG 0322/0324 08004KT SCT007 RMK PEW

4,000개 이상의 공항 관측 자료 및 예보 (METAR 및 TAF 보고).

지도상에서 검색 가능한 기상관측소가 노란 점과 빨간 점으로 표시되어 있습니다.

기상관측소 명을 보려면 표시 위로 마우스를 이동하세요.

날씨 관측과 예보를 보려면 클릭하세요.

지도 변경 : 확대하려면 엑스 표시가 있는 녹색 버튼, 축소하려면 빼기 표시가 있는 녹색 버튼, 다음 페이지의 지도를 보려면 녹색 화살표를 클릭하세요.


METAR-TAF: